| time (UTC) | temp C | wind direction | speed KPH | gust KPH | rain 1hr cm | rain 24hr cm | rain mn cm | humidity % | barometer mb |
| 20260507134202 | 12 | 344 | 8.0 | 14.5 | 0.00 | 1.88 | 0.46 | 74 | 1004.7 |
| 20260507133203 | 11 | 323 | 6.4 | 12.9 | 0.00 | 1.88 | 0.46 | 75 | 1004.8 |
| 20260507132202 | 11 | 291 | 4.8 | 16.1 | 0.00 | 1.88 | 0.46 | 80 | 1004.9 |
| 20260507131224 | 11 | 300 | 6.4 | 14.5 | 0.00 | 1.88 | 0.46 | 82 | 1004.9 |
| 20260507130203 | 11 | 351 | 6.4 | 14.5 | 0.00 | 1.88 | 0.46 | 80 | 1005.1 |
| 20260507125203 | 10 | 290 | 8.0 | 17.7 | 0.00 | 1.88 | 0.46 | 83 | 1005.3 |
| 20260507124203 | 10 | 317 | 1.6 | 14.5 | 0.00 | 1.88 | 0.46 | 87 | 1005.1 |
| 20260507123202 | 9 | 310 | 4.8 | 16.1 | 0.00 | 1.88 | 0.46 | 89 | 1004.9 |
| 20260507122203 | 9 | 302 | 6.4 | 14.5 | 0.00 | 1.88 | 0.46 | 92 | 1005.0 |
| 20260507121202 | 8 | 270 | 4.8 | 19.3 | 0.00 | 1.88 | 0.46 | 92 | 1005.0 |
| 20260507120203 | 8 | 312 | 9.7 | 17.7 | 0.00 | 1.88 | 0.46 | 94 | 1004.6 |
| 20260507115245 | 8 | 316 | 3.2 | 14.5 | 0.00 | 1.88 | 0.46 | 96 | 1004.8 |
| 20260507114202 | 8 | 297 | 3.2 | 9.7 | 0.00 | 1.88 | 0.46 | 95 | 1004.9 |
| 20260507113203 | 8 | 296 | 3.2 | 8.0 | 0.00 | 1.88 | 0.46 | 95 | 1005.1 |
| 20260507112224 | 8 | 288 | 3.2 | 8.0 | 0.00 | 1.88 | 0.46 | 96 | 1005.0 |
| 20260507111202 | 8 | 334 | 3.2 | 8.0 | 0.00 | 1.88 | 0.46 | 95 | 1005.3 |
| 20260507110203 | 8 | 296 | 3.2 | 6.4 | 0.00 | 1.88 | 0.46 | 96 | 1005.0 |
| 20260507105224 | 8 | 296 | 3.2 | 6.4 | 0.00 | 1.88 | 0.46 | 96 | 1005.7 |
| 20260507104202 | 8 | 296 | 3.2 | 4.8 | 0.00 | 1.88 | 0.46 | 96 | 1006.0 |
| 20260507103203 | 8 | 296 | 1.6 | 12.9 | 0.00 | 1.88 | 0.46 | 96 | 1005.3 |
| 20260507102203 | 8 | 290 | 1.6 | 8.0 | 0.00 | 1.88 | 0.46 | 96 | 1005.2 |
| 20260507101224 | 8 | 285 | 3.2 | 8.0 | 0.00 | 1.88 | 0.46 | 96 | 1005.3 |
| 20260507100203 | 8 | 310 | 4.8 | 9.7 | 0.00 | 1.88 | 0.46 | 96 | 1004.6 |
| 20260507095203 | 8 | 273 | 4.8 | 9.7 | 0.03 | 1.88 | 0.46 | 96 | 1004.8 |
| 20260507094202 | 8 | 295 | 3.2 | 9.7 | 0.03 | 1.88 | 0.46 | 96 | 1004.6 |
| 20260507093203 | 8 | 312 | 4.8 | 11.3 | 0.03 | 1.88 | 0.46 | 96 | 1004.4 |
| 20260507092203 | 8 | 283 | 4.8 | 11.3 | 0.00 | 1.85 | 0.43 | 96 | 1004.6 |
| 20260507091203 | 8 | 295 | 1.6 | 8.0 | 0.00 | 1.85 | 0.43 | 96 | 1004.5 |
| 20260507090202 | 9 | 285 | 3.2 | 8.0 | 0.00 | 1.85 | 0.43 | 96 | 1004.6 |
| 20260507085204 | 9 | 285 | 0.0 | 4.8 | 0.00 | 1.85 | 0.43 | 96 | 1004.3 |
| 20260507084202 | 9 | 285 | 1.6 | 4.8 | 0.00 | 1.85 | 0.43 | 96 | 1004.2 |
| 20260507083203 | 9 | 285 | 1.6 | 4.8 | 0.00 | 1.85 | 0.43 | 96 | 1004.2 |
| 20260507082204 | 9 | 285 | 1.6 | 6.4 | 0.00 | 1.85 | 0.43 | 96 | 1004.5 |
| 20260507081203 | 9 | 285 | 3.2 | 6.4 | 0.00 | 1.85 | 0.43 | 96 | 1004.5 |
| 20260507080203 | 10 | 311 | 4.8 | 11.3 | 0.00 | 1.85 | 0.43 | 96 | 1004.1 |
| 20260507075203 | 10 | 295 | 4.8 | 9.7 | 0.00 | 1.85 | 0.43 | 96 | 1004.2 |
| 20260507074203 | 10 | 302 | 4.8 | 8.0 | 0.00 | 1.85 | 0.43 | 96 | 1003.7 |
| 20260507073203 | 10 | 315 | 1.6 | 8.0 | 0.00 | 1.85 | 0.43 | 96 | 1003.8 |
| 20260507072224 | 10 | 339 | 1.6 | 4.8 | 0.00 | 1.85 | 0.43 | 96 | 1003.7 |
| 20260507071203 | 10 | 339 | 1.6 | 3.2 | 0.00 | 1.85 | 0.43 | 96 | 1003.5 |
| 20260507070203 | 10 | 339 | 1.6 | 6.4 | 0.00 | 1.85 | 0.43 | 96 | 1003.3 |
| 20260507065203 | 10 | 339 | 3.2 | 6.4 | 0.03 | 1.85 | 0.43 | 96 | 1003.2 |
| 20260507064203 | 10 | 336 | 3.2 | 9.7 | 0.03 | 1.85 | 0.43 | 96 | 1003.5 |
| 20260507063224 | 10 | 291 | 1.6 | 12.9 | 0.00 | 1.83 | 0.41 | 96 | 1003.3 |
| 20260507062204 | 10 | 295 | 4.8 | 12.9 | 0.00 | 1.83 | 0.41 | 96 | 1003.3 |
| 20260507061202 | 10 | 306 | 4.8 | 14.5 | 0.00 | 1.83 | 0.41 | 96 | 1002.9 |
| 20260507060203 | 10 | 309 | 3.2 | 14.5 | 0.00 | 1.83 | 0.41 | 96 | 1003.1 |
| 20260507055245 | 10 | 325 | 4.8 | 12.9 | 0.05 | 1.83 | 0.41 | 96 | 1003.1 |
| 20260507054224 | 10 | 298 | 1.6 | 9.7 | 0.05 | 1.83 | 0.41 | 96 | 1003.0 |
| 20260507053245 | 10 | 312 | 4.8 | 9.7 | 0.05 | 1.83 | 0.41 | 96 | 1003.0 |
| 20260507052203 | 10 | 308 | 6.4 | 14.5 | 0.03 | 1.80 | 0.38 | 96 | 1003.0 |
| 20260507051203 | 10 | 284 | 1.6 | 9.7 | 0.03 | 1.80 | 0.38 | 96 | 1003.1 |
| 20260507050202 | 10 | 15 | 4.8 | 14.5 | 0.00 | 1.78 | 0.36 | 96 | 1002.8 |
| 20260507045224 | 10 | 267 | 3.2 | 16.1 | 0.33 | 1.75 | 0.33 | 96 | 1003.3 |
| 20260507044203 | 9 | 253 | 9.7 | 22.5 | 0.23 | 1.65 | 0.23 | 96 | 1003.3 |
| 20260507043202 | 9 | 236 | 6.4 | 17.7 | 0.08 | 1.50 | 0.08 | 96 | 1002.8 |
| 20260507042203 | 9 | 234 | 8.0 | 17.7 | 0.03 | 1.45 | 0.03 | 96 | 1002.7 |
| 20260507041203 | 9 | 239 | 8.0 | 17.7 | 0.00 | 1.42 | 0.00 | 96 | 1002.8 |
| 20260507040203 | 9 | 254 | 4.8 | 14.5 | 0.00 | 1.42 | 0.00 | 96 | 1002.9 |
| 20260507035203 | 9 | 259 | 6.4 | 12.9 | 0.00 | 1.42 | 1.42 | 96 | 1002.8 |
| 20260507034224 | 9 | 252 | 4.8 | 14.5 | 0.00 | 1.42 | 1.42 | 96 | 1002.9 |
| 20260507033203 | 9 | 216 | 6.4 | 19.3 | 0.00 | 1.42 | 1.42 | 96 | 1002.9 |
| 20260507032204 | 8 | 233 | 6.4 | 19.3 | 0.00 | 1.42 | 1.42 | 96 | 1003.0 |
| 20260507031203 | 9 | 205 | 8.0 | 22.5 | 0.00 | 1.42 | 1.42 | 95 | 1002.9 |
| 20260507030203 | 9 | 213 | 9.7 | 22.5 | 0.00 | 1.42 | 1.42 | 95 | 1003.0 |
| 20260507025203 | 10 | 209 | 12.9 | 32.2 | 0.00 | 1.42 | 1.42 | 96 | 1003.1 |
| 20260507024202 | 10 | 199 | 11.3 | 24.1 | 0.00 | 1.42 | 1.42 | 95 | 1003.2 |
| 20260507023203 | 10 | 193 | 16.1 | 30.6 | 0.00 | 1.42 | 1.42 | 95 | 1003.3 |
| 20260507022203 | 10 | 205 | 12.9 | 29.0 | 0.00 | 1.42 | 1.42 | 95 | 1003.4 |
| 20260507021203 | 10 | 193 | 11.3 | 30.6 | 0.00 | 1.42 | 1.42 | 95 | 1003.5 |
| 20260507020203 | 10 | 192 | 12.9 | 32.2 | 0.00 | 1.42 | 1.42 | 95 | 1003.7 |
| 20260507015203 | 10 | 198 | 14.5 | 32.2 | 0.05 | 1.42 | 1.42 | 95 | 1003.8 |
| 20260507014203 | 10 | 188 | 19.3 | 38.6 | 0.05 | 1.42 | 1.42 | 95 | 1003.8 |
| 20260507013203 | 10 | 188 | 12.9 | 38.6 | 0.05 | 1.42 | 1.42 | 95 | 1004.0 |
| 20260507012224 | 10 | 181 | 19.3 | 41.8 | 0.05 | 1.42 | 1.42 | 95 | 1004.0 |
| 20260507011203 | 10 | 171 | 17.7 | 37.0 | 0.03 | 1.40 | 1.40 | 95 | 1004.1 |
| 20260507010203 | 10 | 175 | 14.5 | 35.4 | 0.00 | 1.37 | 1.37 | 95 | 1004.2 |
| 20260507005202 | 10 | 187 | 19.3 | 41.8 | 0.10 | 1.37 | 1.37 | 95 | 1004.2 |
| 20260507004225 | 10 | 179 | 20.9 | 38.6 | 0.08 | 1.35 | 1.35 | 95 | 1004.4 |
| 20260507003203 | 10 | 178 | 20.9 | 54.7 | 0.05 | 1.32 | 1.32 | 95 | 1004.4 |
| 20260507002224 | 10 | 167 | 19.3 | 37.0 | 0.03 | 1.30 | 1.30 | 95 | 1004.3 |
| 20260507001203 | 10 | 175 | 20.9 | 38.6 | 0.00 | 1.27 | 1.27 | 95 | 1004.5 |
| 20260507000205 | 10 | 176 | 20.9 | 41.8 | 0.00 | 1.27 | 1.27 | 95 | 1004.5 |
| 20260506235202 | 10 | 175 | 24.1 | 46.7 | 0.23 | 1.27 | 1.27 | 95 | 1004.6 |
| 20260506234203 | 10 | 176 | 20.9 | 41.8 | 0.20 | 1.24 | 1.24 | 95 | 1004.7 |
| 20260506233204 | 10 | 173 | 20.9 | 40.2 | 0.18 | 1.22 | 1.22 | 95 | 1004.9 |
| 20260506232202 | 10 | 169 | 17.7 | 38.6 | 0.13 | 1.17 | 1.17 | 94 | 1004.9 |
| 20260506231203 | 10 | 177 | 19.3 | 37.0 | 0.05 | 1.09 | 1.09 | 95 | 1005.0 |
| 20260506230203 | 10 | 184 | 17.7 | 40.2 | 0.00 | 1.04 | 1.04 | 95 | 1005.0 |
| 20260506225203 | 10 | 179 | 17.7 | 35.4 | 0.66 | 0.99 | 0.99 | 94 | 1005.1 |
| 20260506224202 | 10 | 185 | 20.9 | 48.3 | 0.58 | 0.91 | 0.91 | 94 | 1005.2 |
| 20260506223203 | 10 | 175 | 17.7 | 43.5 | 0.48 | 0.81 | 0.81 | 94 | 1005.3 |
| 20260506222203 | 10 | 182 | 20.9 | 38.6 | 0.36 | 0.69 | 0.69 | 94 | 1005.6 |
| 20260506221202 | 10 | 179 | 20.9 | 43.5 | 0.13 | 0.46 | 0.46 | 94 | 1005.4 |
| 20260506220203 | 10 | 185 | 19.3 | 40.2 | 0.00 | 0.33 | 0.33 | 94 | 1005.7 |
| 20260506215203 | 11 | 187 | 16.1 | 38.6 | 0.15 | 0.30 | 0.30 | 94 | 1005.8 |
| 20260506214203 | 11 | 190 | 17.7 | 38.6 | 0.08 | 0.23 | 0.23 | 94 | 1005.8 |
| 20260506213203 | 11 | 184 | 17.7 | 38.6 | 0.05 | 0.20 | 0.20 | 94 | 1005.8 |
| 20260506212202 | 11 | 186 | 17.7 | 45.1 | 0.03 | 0.18 | 0.18 | 93 | 1005.9 |
| 20260506211203 | 11 | 182 | 17.7 | 40.2 | 0.00 | 0.15 | 0.15 | 94 | 1005.8 |
| 20260506205203 | 11 | 197 | 17.7 | 35.4 | 0.10 | 0.13 | 0.13 | 93 | 1006.0 |
| 20260506204203 | 11 | 205 | 19.3 | 35.4 | 0.08 | 0.10 | 0.10 | 93 | 1006.1 |
| 20260506203202 | 11 | 196 | 16.1 | 41.8 | 0.08 | 0.10 | 0.10 | 93 | 1005.8 |
| 20260506202203 | 11 | 192 | 16.1 | 33.8 | 0.05 | 0.08 | 0.08 | 93 | 1006.3 |
| 20260506201224 | 11 | 204 | 20.9 | 38.6 | 0.03 | 0.05 | 0.05 | 92 | 1006.5 |
| 20260506200202 | 11 | 192 | 16.1 | 35.4 | 0.03 | 0.05 | 0.05 | 92 | 1006.2 |
| 20260506195203 | 11 | 198 | 12.9 | 32.2 | 0.00 | 0.00 | 0.00 | 92 | 1006.2 |
| 20260506194203 | 11 | 201 | 12.9 | 40.2 | 0.00 | 0.00 | 0.00 | 90 | 1006.1 |
| 20260506193202 | 11 | 193 | 19.3 | 41.8 | 0.00 | 0.00 | 0.00 | 89 | 1006.0 |
| 20260506192203 | 11 | 180 | 19.3 | 41.8 | 0.00 | 0.00 | 0.00 | 88 | 1005.6 |
| 20260506191203 | 11 | 189 | 16.1 | 43.5 | 0.00 | 0.00 | 0.00 | 88 | 1005.7 |
| 20260506190202 | 11 | 191 | 20.9 | 45.1 | 0.00 | 0.00 | 0.00 | 87 | 1006.0 |
| 20260506185203 | 12 | 187 | 16.1 | 38.6 | 0.00 | 0.00 | 0.00 | 87 | 1006.2 |
| 20260506184203 | 12 | 200 | 14.5 | 32.2 | 0.00 | 0.00 | 0.00 | 87 | 1006.4 |
| 20260506183202 | 12 | 185 | 16.1 | 40.2 | 0.00 | 0.00 | 0.00 | 86 | 1006.5 |
| 20260506182203 | 12 | 182 | 14.5 | 35.4 | 0.00 | 0.00 | 0.00 | 85 | 1006.7 |
| 20260506181202 | 12 | 189 | 16.1 | 40.2 | 0.00 | 0.00 | 0.00 | 86 | 1006.8 |
| 20260506180203 | 12 | 198 | 12.9 | 29.0 | 0.00 | 0.00 | 0.00 | 87 | 1006.9 |
| 20260506175202 | 12 | 193 | 8.0 | 22.5 | 0.00 | 0.00 | 0.00 | 87 | 1006.9 |
| 20260506174203 | 12 | 202 | 16.1 | 30.6 | 0.00 | 0.00 | 0.00 | 86 | 1007.1 |
| 20260506173224 | 12 | 203 | 12.9 | 29.0 | 0.00 | 0.00 | 0.00 | 86 | 1007.2 |
| 20260506172202 | 12 | 209 | 14.5 | 30.6 | 0.00 | 0.00 | 0.00 | 85 | 1007.3 |
| 20260506171203 | 12 | 198 | 14.5 | 25.7 | 0.00 | 0.00 | 0.00 | 85 | 1007.5 |
| 20260506170203 | 12 | 209 | 11.3 | 25.7 | 0.00 | 0.00 | 0.00 | 85 | 1007.8 |
| 20260506165203 | 12 | 210 | 9.7 | 29.0 | 0.00 | 0.00 | 0.00 | 85 | 1007.9 |
| 20260506164203 | 12 | 205 | 14.5 | 27.4 | 0.00 | 0.00 | 0.00 | 84 | 1008.0 |
| 20260506163245 | 13 | 204 | 11.3 | 33.8 | 0.00 | 0.00 | 0.00 | 85 | 1008.3 |
| 20260506162203 | 12 | 212 | 11.3 | 24.1 | 0.00 | 0.00 | 0.00 | 85 | 1008.4 |
| 20260506161203 | 12 | 213 | 11.3 | 24.1 | 0.00 | 0.00 | 0.00 | 86 | 1008.5 |
| 20260506160202 | 12 | 220 | 9.7 | 22.5 | 0.00 | 0.00 | 0.00 | 85 | 1008.8 |
| 20260506155203 | 12 | 218 | 6.4 | 35.4 | 0.00 | 0.00 | 0.00 | 86 | 1008.9 |
| 20260506154223 | 12 | 202 | 17.7 | 32.2 | 0.00 | 0.00 | 0.00 | 84 | 1008.8 |
| 20260506153203 | 13 | 217 | 9.7 | 25.7 | 0.00 | 0.00 | 0.00 | 83 | 1008.8 |
| 20260506152203 | 13 | 194 | 16.1 | 40.2 | 0.00 | 0.00 | 0.00 | 82 | 1008.6 |
| 20260506151203 | 13 | 200 | 19.3 | 37.0 | 0.00 | 0.00 | 0.00 | 84 | 1008.4 |
| 20260506150203 | 13 | 201 | 16.1 | 38.6 | 0.00 | 0.00 | 0.00 | 83 | 1008.3 |
| 20260506145202 | 13 | 204 | 11.3 | 27.4 | 0.00 | 0.00 | 0.00 | 83 | 1008.4 |
| 20260506144224 | 13 | 194 | 12.9 | 29.0 | 0.00 | 0.00 | 0.00 | 84 | 1008.5 |
| 20260506143203 | 12 | 206 | 9.7 | 20.9 | 0.00 | 0.00 | 0.00 | 84 | 1008.9 |
| 20260506142202 | 12 | 249 | 8.0 | 20.9 | 0.00 | 0.00 | 0.00 | 86 | 1009.1 |
| 20260506141203 | 12 | 201 | 8.0 | 22.5 | 0.00 | 0.00 | 0.00 | 86 | 1009.0 |
| 20260506140202 | 12 | 199 | 14.5 | 32.2 | 0.00 | 0.00 | 0.00 | 87 | 1008.9 |
| 20260506135203 | 12 | 199 | 9.7 | 19.3 | 0.00 | 0.00 | 0.00 | 88 | 1009.1 |